Time;durP1;ratioP1;P1;durP2;ratioP2;P2;SDS_P1;SDS_P2;PMS_P1;PMS_P2;Temp;Humidity;BMP_temperature;BMP_pressure;BME280_temperature;BME280_humidity;BME280_pressure;Samples;Min_cycle;Max_cycle;Signal;HPM_P1;HPM_P2
2022/04/07 00:00:18;;;;;;;12.73;4.63;;;;;;;9.14;100.00;98769.34;4953806;28;20853;-74
2022/04/07 00:02:44;;;;;;;13.88;5.10;;;;;;;9.13;100.00;98757.00;4969784;28;20040;-75
2022/04/07 00:05:09;;;;;;;9.75;3.83;;;;;;;9.18;100.00;98762.41;4951359;28;20062;-75
2022/04/07 00:07:35;;;;;;;16.50;5.25;;;;;;;9.18;100.00;98751.66;4964084;28;20041;-75
2022/04/07 00:10:00;;;;;;;12.50;4.60;;;;;;;9.19;100.00;98744.41;4950956;28;20493;-76
2022/04/07 00:12:26;;;;;;;10.88;3.88;;;;;;;9.18;100.00;98732.06;4963678;28;20657;-76
2022/04/07 00:14:51;;;;;;;11.43;4.18;;;;;;;9.18;100.00;98732.06;4962139;28;20034;-76
2022/04/07 00:17:17;;;;;;;9.18;3.50;;;;;;;9.07;100.00;98736.53;4956375;28;20164;-78
2022/04/07 00:19:42;;;;;;;15.20;4.72;;;;;;;8.93;100.00;98740.69;4965613;28;20028;-77
2022/04/07 00:22:07;;;;;;;12.88;3.83;;;;;;;8.79;100.00;98724.97;4950898;28;20130;-77
2022/04/07 00:24:33;;;;;;;19.50;4.43;;;;;;;8.74;100.00;98716.88;4966043;28;20038;-78
2022/04/07 00:26:58;;;;;;;14.38;4.18;;;;;;;8.67;100.00;98705.53;4949689;28;20092;-77
2022/04/07 00:29:24;;;;;;;19.10;4.65;;;;;;;8.58;100.00;98702.47;4968986;28;20100;-76
2022/04/07 00:31:56;;;;;;;14.57;3.40;;;;;;;8.50;100.00;98684.13;4949016;28;20147;-77
2022/04/07 00:34:21;;;;;;;7.63;3.60;;;;;;;8.41;100.00;98684.84;4967946;28;20033;-77
2022/04/07 00:36:47;;;;;;;7.88;2.85;;;;;;;8.39;100.00;98671.69;4970436;28;20112;-77
2022/04/07 00:39:12;;;;;;;13.25;2.50;;;;;;;8.34;100.00;98685.81;4940557;28;20050;-77
2022/04/07 00:41:39;;;;;;;9.18;3.05;;;;;;;8.35;100.00;98678.56;4953195;28;20041;-77
2022/04/07 00:44:08;;;;;;;11.25;2.78;;;;;;;8.30;100.00;98662.41;4949750;28;20095;-77
2022/04/07 00:46:37;;;;;;;11.25;2.25;;;;;;;8.35;100.00;98665.97;4965241;28;20030;-77
2022/04/07 00:49:03;;;;;;;13.80;2.65;;;;;;;8.42;100.00;98647.00;4947189;28;20049;-77
2022/04/07 00:51:29;;;;;;;10.48;2.97;;;;;;;8.46;100.00;98655.34;4978471;28;20061;-76
2022/04/07 00:53:55;;;;;;;10.52;3.17;;;;;;;8.49;100.00;98649.50;4920566;28;20059;-77
2022/04/07 00:56:20;;;;;;;13.98;3.38;;;;;;;8.54;100.00;98652.25;4968529;28;20029;-76
2022/04/07 00:58:47;;;;;;;12.48;3.25;;;;;;;8.54;100.00;98636.16;4966695;28;20029;-77
2022/04/07 01:01:13;;;;;;;11.05;3.30;;;;;;;8.57;100.00;98632.97;4950489;28;22607;-76
2022/04/07 01:03:38;;;;;;;12.95;3.58;;;;;;;8.57;100.00;98638.31;4964888;28;20533;-76
2022/04/07 01:06:04;;;;;;;16.98;4.38;;;;;;;8.54;100.00;98625.41;4949708;28;20247;-76
2022/04/07 01:08:30;;;;;;;11.70;3.88;;;;;;;8.55;100.00;98627.03;4967566;28;20440;-76
2022/04/07 01:10:55;;;;;;;12.43;3.88;;;;;;;8.53;100.00;98615.72;4955961;28;20076;-76
2022/04/07 01:13:21;;;;;;;12.32;3.30;;;;;;;8.57;100.00;98619.53;4961800;28;20064;-76
2022/04/07 01:15:46;;;;;;;9.68;3.00;;;;;;;8.56;100.00;98617.91;4952641;28;20036;-76
2022/04/07 01:18:12;;;;;;;13.45;3.00;;;;;;;8.55;100.00;98610.94;4967598;28;20755;-76
2022/04/07 01:20:38;;;;;;;13.77;3.70;;;;;;;8.51;100.00;98597.19;4966953;28;20061;-76
2022/04/07 01:23:04;;;;;;;14.13;3.60;;;;;;;8.54;100.00;98599.38;4951381;28;20414;-75
2022/04/07 01:25:30;;;;;;;13.88;3.45;;;;;;;8.51;100.00;98593.72;4962078;28;20037;-75
2022/04/07 01:27:55;;;;;;;8.20;3.30;;;;;;;8.59;100.00;98585.19;4953173;28;21114;-75
2022/04/07 01:30:21;;;;;;;12.10;3.40;;;;;;;8.58;100.00;98594.31;4965639;28;20184;-77
2022/04/07 01:32:57;;;;;;;18.20;4.38;;;;;;;8.55;100.00;98576.84;4949285;28;20134;-76
2022/04/07 01:35:23;;;;;;;13.68;2.97;;;;;;;8.44;100.00;98569.78;4963297;28;20172;-76
2022/04/07 01:37:51;;;;;;;12.65;3.30;;;;;;;8.24;100.00;98567.66;4948086;28;20444;-76
2022/04/07 01:40:22;;;;;;;14.23;3.63;;;;;;;8.20;100.00;98550.47;4980440;28;20508;-77
2022/04/07 01:42:51;;;;;;;12.50;3.20;;;;;;;8.16;100.00;98544.00;4968631;28;20022;-79
2022/04/07 01:45:17;;;;;;;17.05;4.13;;;;;;;8.20;100.00;98545.09;4948884;28;20532;-76
2022/04/07 01:47:43;;;;;;;13.43;3.55;;;;;;;8.17;100.00;98534.88;4966590;28;20033;-76
2022/04/07 01:50:10;;;;;;;11.13;3.78;;;;;;;8.23;100.00;98525.81;4950879;28;20186;-76
2022/04/07 01:52:37;;;;;;;17.50;5.93;;;;;;;8.23;100.00;98546.47;4947088;28;20664;-76
2022/04/07 01:55:03;;;;;;;14.80;5.22;;;;;;;8.12;100.00;98532.16;4952810;28;20057;-76
2022/04/07 01:57:28;;;;;;;11.13;5.60;;;;;;;8.18;100.00;98546.41;4967422;28;20034;-77
2022/04/07 01:59:54;;;;;;;19.50;6.85;;;;;;;8.11;100.00;98509.09;4951346;28;20524;-76
2022/04/07 02:02:23;;;;;;;17.38;6.47;;;;;;;8.08;100.00;98520.31;4964438;28;20542;-76
2022/04/07 02:05:09;;;;;;;12.93;5.43;;;;;;;7.96;100.00;98525.81;4967045;28;20052;-77
2022/04/07 02:07:36;;;;;;;17.42;6.63;;;;;;;7.95;100.00;98524.19;4953537;28;20657;-78
2022/04/07 02:10:03;;;;;;;19.05;7.28;;;;;;;7.98;100.00;98530.94;4938397;28;20029;-77
2022/04/07 02:12:29;;;;;;;24.30;7.82;;;;;;;7.95;100.00;98507.31;4933659;28;20050;-77
2022/04/07 02:14:59;;;;;;;22.52;6.82;;;;;;;7.97;100.00;98513.22;4965600;28;20048;-76
2022/04/07 02:17:25;;;;;;;19.17;6.22;;;;;;;7.96;100.00;98511.59;4952353;28;23358;-76
2022/04/07 02:19:52;;;;;;;15.35;7.40;;;;;;;8.06;100.00;98485.69;4968764;28;20072;-76
2022/04/07 02:22:19;;;;;;;19.88;6.45;;;;;;;8.18;100.00;98492.78;4946370;28;20065;-76
2022/04/07 02:24:45;;;;;;;24.92;7.07;;;;;;;8.26;100.00;98489.66;4966821;28;20076;-78
2022/04/07 02:27:10;;;;;;;18.25;5.85;;;;;;;8.31;100.00;98471.72;4959577;28;20126;-75
2022/04/07 02:29:36;;;;;;;23.90;5.07;;;;;;;8.38;100.00;98466.16;4921284;28;20060;-79
2022/04/07 02:32:01;;;;;;;21.35;5.40;;;;;;;8.39;100.00;98466.97;4963275;28;20033;-78
2022/04/07 02:34:27;;;;;;;19.73;4.57;;;;;;;8.30;100.00;98458.56;4950131;28;20053;-76
2022/04/07 02:36:53;;;;;;;26.35;4.43;;;;;;;8.31;100.00;98455.59;4950962;28;20037;-76
2022/04/07 02:39:18;;;;;;;18.25;5.00;;;;;;;8.24;100.00;98438.94;4948800;28;20614;-75
2022/04/07 02:41:43;;;;;;;21.25;4.03;;;;;;;8.29;100.00;98457.75;4968267;28;20040;-76
2022/04/07 02:44:09;;;;;;;20.00;4.85;;;;;;;8.30;100.00;98448.63;4952672;28;20056;-76
2022/04/07 02:46:35;;;;;;;21.88;5.55;;;;;;;8.38;100.00;98435.84;4971017;28;21322;-77
2022/04/07 02:49:00;;;;;;;19.63;4.53;;;;;;;8.38;100.00;98430.47;4965671;28;20056;-76
2022/04/07 02:51:26;;;;;;;19.73;5.25;;;;;;;8.43;100.00;98425.16;4952137;28;20049;-77
2022/04/07 02:53:57;;;;;;;22.00;5.57;;;;;;;8.45;100.00;98414.97;4964924;28;21038;-76
2022/04/07 02:56:24;;;;;;;26.65;5.85;;;;;;;8.46;100.00;98400.47;4954555;28;20045;-79
2022/04/07 02:58:49;;;;;;;24.23;5.68;;;;;;;8.49;100.00;98397.28;4965692;28;20140;-77
2022/04/07 03:01:15;;;;;;;20.98;5.50;;;;;;;8.41;100.00;98387.06;4950283;28;20144;-77
2022/04/07 03:03:41;;;;;;;21.20;5.93;;;;;;;8.28;100.00;98369.50;4968022;28;20038;-79
2022/04/07 03:06:06;;;;;;;17.55;5.78;;;;;;;8.25;100.00;98375.38;4950817;28;20050;-79
2022/04/07 03:08:33;;;;;;;22.13;6.57;;;;;;;8.23;100.00;98375.63;4952350;28;20045;-77
2022/04/07 03:11:00;;;;;;;21.85;5.85;;;;;;;8.22;100.00;98352.56;4971391;28;20048;-77
2022/04/07 03:13:25;;;;;;;27.77;6.38;;;;;;;8.26;100.00;98361.72;4951663;28;20053;-77
2022/04/07 03:15:51;;;;;;;25.10;6.10;;;;;;;8.27;100.00;98347.22;4971142;28;22569;-77
2022/04/07 03:18:17;;;;;;;26.23;6.30;;;;;;;8.30;100.00;98325.25;4953520;28;21426;-77
2022/04/07 03:20:42;;;;;;;25.55;6.13;;;;;;;8.31;100.00;98321.50;4971575;28;20080;-77
2022/04/07 03:23:08;;;;;;;22.17;5.63;;;;;;;8.28;100.00;98332.78;4936832;28;20050;-78
2022/04/07 03:25:34;;;;;;;20.65;5.38;;;;;;;8.31;100.00;98326.06;4935770;28;20060;-77
2022/04/07 03:27:59;;;;;;;26.60;6.45;;;;;;;8.33;100.00;98314.00;4957490;28;20493;-77
2022/04/07 03:30:25;;;;;;;20.20;5.47;;;;;;;8.29;100.00;98312.91;4971014;28;20112;-77
2022/04/07 03:32:50;;;;;;;18.33;5.55;;;;;;;8.33;100.00;98292.56;4965300;28;20521;-77
2022/04/07 03:35:16;;;;;;;19.85;5.45;;;;;;;8.32;100.00;98288.25;4937059;28;20057;-76
2022/04/07 03:37:42;;;;;;;21.05;5.90;;;;;;;8.27;100.00;98282.84;4968901;28;20036;-76
2022/04/07 03:40:08;;;;;;;17.70;5.20;;;;;;;8.26;100.00;98302.72;4946520;28;21030;-76
2022/04/07 03:42:33;;;;;;;23.42;5.32;;;;;;;8.25;100.00;98305.63;4965908;28;20370;-76
2022/04/07 03:44:59;;;;;;;19.75;5.47;;;;;;;8.24;100.00;98294.09;4951003;28;20053;-76
2022/04/07 03:47:24;;;;;;;15.52;5.13;;;;;;;8.23;100.00;98281.78;4965975;28;20052;-76
2022/04/07 03:49:50;;;;;;;17.77;4.82;;;;;;;8.32;100.00;98290.94;4960107;28;20029;-76
2022/04/07 03:52:16;;;;;;;14.60;4.45;;;;;;;8.34;100.00;98282.63;4957757;28;20682;-77
2022/04/07 03:54:41;;;;;;;15.25;3.33;;;;;;;8.31;100.00;98286.63;4964583;28;20036;-76
2022/04/07 03:57:07;;;;;;;13.35;3.85;;;;;;;8.40;100.00;98287.00;4952027;28;20112;-76
2022/04/07 03:59:38;;;;;;;16.27;4.45;;;;;;;8.40;100.00;98275.44;4967461;28;20155;-76
2022/04/07 04:02:05;;;;;;;15.60;3.85;;;;;;;8.45;100.00;98273.59;4952444;28;20074;-76
2022/04/07 04:04:31;;;;;;;17.50;3.58;;;;;;;8.44;100.00;98241.66;4979347;28;20512;-76
2022/04/07 04:06:56;;;;;;;18.50;3.60;;;;;;;8.44;100.00;98249.72;4952625;28;20508;-77
2022/04/07 04:09:22;;;;;;;19.52;3.45;;;;;;;8.45;100.00;98252.13;4964624;28;20144;-76
2022/04/07 04:11:47;;;;;;;14.13;3.50;;;;;;;8.49;100.00;98252.41;4964835;28;21430;-77
2022/04/07 04:14:13;;;;;;;20.95;3.70;;;;;;;8.52;100.00;98246.53;4954733;28;20104;-77
2022/04/07 04:16:38;;;;;;;14.82;3.10;;;;;;;8.54;100.00;98239.81;4951667;28;20037;-76
2022/04/07 04:19:04;;;;;;;18.10;4.15;;;;;;;8.57;100.00;98217.84;4952263;28;20894;-76
2022/04/07 04:21:30;;;;;;;16.80;3.63;;;;;;;8.51;100.00;98218.09;4965270;28;20789;-76
2022/04/07 04:23:55;;;;;;;16.23;4.40;;;;;;;8.53;100.00;98224.81;4937131;28;20168;-78
2022/04/07 04:26:21;;;;;;;22.27;3.92;;;;;;;8.39;100.00;98210.28;4970108;28;20034;-78
2022/04/07 04:28:46;;;;;;;18.23;3.92;;;;;;;8.27;100.00;98202.41;4953768;28;20041;-78
2022/04/07 04:31:12;;;;;;;23.65;5.22;;;;;;;8.24;100.00;98191.38;4966045;28;20114;-78
2022/04/07 04:33:37;;;;;;;28.90;5.47;;;;;;;8.17;100.00;98188.94;4968803;28;20040;-77
2022/04/07 04:36:03;;;;;;;31.30;5.30;;;;;;;8.13;100.00;98182.50;4953448;28;20091;-77
2022/04/07 04:38:28;;;;;;;28.42;6.00;;;;;;;8.03;100.00;98163.69;4981484;28;20046;-77
2022/04/07 04:40:54;;;;;;;24.73;5.15;;;;;;;7.98;100.00;98158.31;4947768;28;20076;-78
2022/04/07 04:43:19;;;;;;;29.52;6.10;;;;;;;7.96;100.00;98168.47;4950041;28;22296;-77
2022/04/07 04:45:45;;;;;;;27.38;5.03;;;;;;;7.97;100.00;98137.91;4957191;28;20152;-77
2022/04/07 04:48:10;;;;;;;33.83;5.97;;;;;;;7.98;100.00;98155.63;4979583;28;22513;-77
2022/04/07 04:50:36;;;;;;;26.63;5.28;;;;;;;7.84;100.00;98149.94;4967916;28;20156;-78
2022/04/07 04:53:01;;;;;;;23.95;5.03;;;;;;;7.84;100.00;98139.22;4972901;28;20164;-77
2022/04/07 04:55:27;;;;;;;27.90;5.50;;;;;;;7.83;100.00;98121.53;4979991;28;20073;-79
2022/04/07 04:57:52;;;;;;;27.75;4.90;;;;;;;7.81;100.00;98113.75;4965189;28;20057;-78
2022/04/07 05:00:18;;;;;;;39.30;6.45;;;;;;;7.84;100.00;98123.94;4975710;28;20044;-77
2022/04/07 05:02:43;;;;;;;25.25;5.70;;;;;;;7.96;100.00;98123.72;4952902;28;20321;-77
2022/04/07 05:05:09;;;;;;;20.92;5.63;;;;;;;7.95;100.00;98122.09;4968147;28;20176;-77
2022/04/07 05:07:34;;;;;;;27.40;5.78;;;;;;;7.99;100.00;98117.03;4953536;28;20603;-77
2022/04/07 05:10:00;;;;;;;24.00;5.43;;;;;;;7.97;100.00;98089.66;4957867;28;20037;-77
2022/04/07 05:12:26;;;;;;;29.00;6.25;;;;;;;8.07;100.00;98109.31;4969721;28;23663;-77
2022/04/07 05:14:52;;;;;;;19.85;4.80;;;;;;;8.03;100.00;98084.06;4959104;28;20108;-82
2022/04/07 05:17:19;;;;;;;20.00;4.43;;;;;;;7.97;100.00;98079.78;5000119;28;20041;-81
2022/04/07 05:19:45;;;;;;;16.25;2.72;;;;;;;7.87;100.00;98090.47;5003957;28;20488;-81
2022/04/07 05:22:11;;;;;;;23.23;3.50;;;;;;;7.77;100.00;98096.56;5014080;28;20037;-81
2022/04/07 05:24:37;;;;;;;10.15;2.60;;;;;;;7.64;100.00;98083.66;5010330;28;20068;-83
2022/04/07 05:27:02;;;;;;;12.65;2.65;;;;;;;7.55;100.00;98093.25;4987973;28;20041;-82
2022/04/07 05:29:28;;;;;;;20.80;4.10;;;;;;;7.47;100.00;98072.31;4960299;28;20057;-83
2022/04/07 05:31:53;;;;;;;16.73;3.88;;;;;;;7.48;100.00;98098.06;4967251;28;20036;-82
2022/04/07 05:34:18;;;;;;;21.80;4.22;;;;;;;7.36;100.00;98091.00;4982077;28;20041;-82
2022/04/07 05:36:44;;;;;;;17.83;4.38;;;;;;;7.36;100.00;98076.81;4959630;28;20501;-82
2022/04/07 05:39:09;;;;;;;13.77;2.80;;;;;;;7.22;100.00;98095.19;4983594;28;20049;-82
2022/04/07 05:41:35;;;;;;;11.52;2.67;;;;;;;7.09;100.00;98090.28;4944596;28;20485;-82
2022/04/07 05:44:00;;;;;;;15.55;3.53;;;;;;;7.02;100.00;98057.59;4953745;28;20084;-79
2022/04/07 05:46:26;;;;;;;4.95;1.05;;;;;;;6.62;100.00;98096.34;4951558;28;20387;-81
2022/04/07 05:48:51;;;;;;;6.68;1.10;;;;;;;6.31;100.00;98090.72;4965086;28;20041;-79
2022/04/07 05:51:16;;;;;;;7.90;1.67;;;;;;;6.09;100.00;98081.94;4964606;28;20026;-80
2022/04/07 05:53:42;;;;;;;9.45;1.45;;;;;;;5.91;100.00;98080.38;4953990;28;20240;-80
2022/04/07 05:56:08;;;;;;;5.72;1.27;;;;;;;5.68;100.00;98082.22;4967065;28;20060;-83
2022/04/07 05:58:33;;;;;;;10.93;1.60;;;;;;;5.66;100.00;98081.69;4957661;28;20478;-81
2022/04/07 06:00:59;;;;;;;11.02;1.98;;;;;;;5.59;100.00;98094.41;4971014;28;20127;-83
2022/04/07 06:03:24;;;;;;;9.05;2.10;;;;;;;5.50;100.00;98096.69;4974640;28;20068;-82
2022/04/07 06:05:52;;;;;;;10.13;1.70;;;;;;;5.45;100.00;98099.31;4970180;28;20524;-83
2022/04/07 06:08:21;;;;;;;8.75;1.55;;;;;;;5.41;100.00;98092.84;4951119;28;20077;-83
2022/04/07 06:10:47;;;;;;;8.98;1.83;;;;;;;5.36;100.00;98100.78;4967194;28;20144;-82
2022/04/07 06:13:14;;;;;;;9.82;1.60;;;;;;;5.32;100.00;98093.50;4956527;28;20959;-84
2022/04/07 06:15:40;;;;;;;7.65;1.70;;;;;;;5.23;100.00;98095.81;4955546;28;20057;-81
2022/04/07 06:18:06;;;;;;;11.70;1.70;;;;;;;5.24;100.00;98111.56;4953171;28;21383;-81
2022/04/07 06:20:32;;;;;;;8.32;1.60;;;;;;;5.21;100.00;98113.91;4963968;28;20139;-81
2022/04/07 06:22:57;;;;;;;9.18;2.28;;;;;;;5.17;100.00;98128.78;4964020;28;20486;-82
2022/04/07 06:25:23;;;;;;;8.10;1.52;;;;;;;5.15;100.00;98126.34;4969764;28;20060;-81
2022/04/07 06:27:48;;;;;;;6.90;1.30;;;;;;;5.12;100.00;98131.38;4977162;28;20075;-83
2022/04/07 06:30:18;;;;;;;13.50;1.88;;;;;;;4.96;100.00;98101.81;4945597;28;20152;-81
2022/04/07 06:32:47;;;;;;;6.88;1.30;;;;;;;4.76;100.00;98058.81;4978458;28;20042;-79
2022/04/07 06:35:14;;;;;;;8.40;1.50;;;;;;;4.66;100.00;98063.97;4942106;28;20030;-81
2022/04/07 06:37:58;;;;;;;7.10;1.10;;;;;;;4.55;100.00;98047.81;4960729;28;20110;-81
2022/04/07 06:40:25;;;;;;;8.35;1.55;;;;;;;4.58;100.00;98025.19;4970569;28;20119;-80
2022/04/07 06:42:52;;;;;;;5.00;1.60;;;;;;;4.64;100.00;97997.56;4945320;28;20146;-79
2022/04/07 06:45:18;;;;;;;5.75;1.15;;;;;;;4.67;100.00;97974.91;4977998;28;20145;-79
2022/04/07 06:47:44;;;;;;;5.22;1.00;;;;;;;4.65;100.00;97998.38;4940439;28;20066;-79
2022/04/07 06:50:12;;;;;;;5.30;1.00;;;;;;;4.67;100.00;97996.25;4971180;28;20034;-78
2022/04/07 06:52:37;;;;;;;3.85;1.20;;;;;;;4.66;100.00;97998.13;4953519;28;20069;-78
2022/04/07 06:55:04;;;;;;;14.95;2.10;;;;;;;4.77;100.00;97996.41;4968363;28;20079;-78
2022/04/07 06:57:29;;;;;;;7.45;1.40;;;;;;;4.88;100.00;98006.19;4968638;28;20156;-78
2022/04/07 06:59:55;;;;;;;5.30;1.00;;;;;;;4.96;100.00;97989.75;4951979;28;20068;-78
2022/04/07 07:02:20;;;;;;;5.32;1.25;;;;;;;5.01;100.00;97971.13;4982168;28;20041;-78
2022/04/07 07:04:45;;;;;;;6.28;1.05;;;;;;;5.05;100.00;97987.47;4952999;28;20532;-78
2022/04/07 07:07:11;;;;;;;6.47;0.95;;;;;;;4.98;100.00;97979.66;4969188;28;20037;-78
2022/04/07 07:09:37;;;;;;;5.95;1.20;;;;;;;5.06;100.00;97993.63;4954013;28;20049;-78
2022/04/07 07:12:03;;;;;;;6.57;1.85;;;;;;;5.02;100.00;97977.31;4954803;28;20481;-78
2022/04/07 07:14:29;;;;;;;10.05;1.85;;;;;;;4.99;100.00;97967.94;4954533;28;20064;-77
2022/04/07 07:16:54;;;;;;;5.72;1.02;;;;;;;5.06;100.00;97959.75;4964167;28;20036;-78
2022/04/07 07:19:26;;;;;;;5.47;1.05;;;;;;;5.09;100.00;97956.59;4969442;28;20080;-78
2022/04/07 07:21:54;;;;;;;5.03;1.20;;;;;;;5.15;100.00;97954.78;4953338;28;20630;-78
2022/04/07 07:24:20;;;;;;;4.10;0.85;;;;;;;5.20;100.00;97910.28;4953392;28;20060;-77
2022/04/07 07:26:46;;;;;;;3.83;0.82;;;;;;;5.25;100.00;97890.84;4948905;28;20060;-79
2022/04/07 07:29:11;;;;;;;5.40;0.80;;;;;;;5.35;100.00;97874.94;4968133;28;20057;-79
2022/04/07 07:31:37;;;;;;;4.53;1.08;;;;;;;5.38;100.00;97869.09;4960883;28;20057;-80
2022/04/07 07:34:06;;;;;;;7.47;1.05;;;;;;;5.50;100.00;97859.06;4951064;28;20041;-78
2022/04/07 07:36:31;;;;;;;4.70;0.73;;;;;;;5.57;100.00;97903.44;4958341;28;20037;-78
2022/04/07 07:38:57;;;;;;;3.95;0.85;;;;;;;5.64;100.00;97896.03;4983541;28;20045;-78
2022/04/07 07:41:23;;;;;;;5.03;0.93;;;;;;;5.68;100.00;97907.81;4971532;28;20108;-79
2022/04/07 07:43:48;;;;;;;4.78;0.90;;;;;;;5.74;100.00;97893.47;4938702;28;20632;-79
2022/04/07 07:46:14;;;;;;;3.50;1.05;;;;;;;5.79;100.00;97877.50;4976190;28;20072;-78
2022/04/07 07:48:39;;;;;;;8.73;0.82;;;;;;;5.93;100.00;97869.88;4976448;28;20084;-79
2022/04/07 07:51:04;;;;;;;2.28;0.60;;;;;;;5.94;100.00;97888.34;4974292;28;20037;-79
2022/04/07 07:53:30;;;;;;;3.50;0.93;;;;;;;6.02;100.00;97887.06;4966602;28;20096;-79
2022/04/07 07:55:56;;;;;;;4.90;0.75;;;;;;;6.14;100.00;97894.88;4982107;28;20033;-79
2022/04/07 07:58:25;;;;;;;3.70;0.77;;;;;;;6.26;100.00;97902.75;4985202;28;20034;-79
2022/04/07 08:00:50;;;;;;;5.20;0.88;;;;;;;6.35;100.00;97901.19;4969505;28;20053;-79
2022/04/07 08:03:16;;;;;;;4.97;0.70;;;;;;;6.36;100.00;97900.16;4982247;28;20041;-77
2022/04/07 08:05:41;;;;;;;6.63;1.20;;;;;;;6.42;100.00;97891.06;4965323;28;20061;-77
2022/04/07 08:08:07;;;;;;;4.35;0.70;;;;;;;6.40;100.00;97899.38;4975111;28;20065;-76
2022/04/07 08:10:33;;;;;;;4.55;1.83;;;;;;;6.49;100.00;97882.81;4959539;28;20058;-79
2022/04/07 08:12:58;;;;;;;7.57;1.00;;;;;;;6.61;100.00;97870.88;4988576;28;20104;-79
2022/04/07 08:15:24;;;;;;;3.15;0.80;;;;;;;6.76;100.00;97878.16;4958481;28;20041;-79
2022/04/07 08:17:50;;;;;;;5.93;1.20;;;;;;;6.83;100.00;97884.06;4972370;28;20048;-79
2022/04/07 08:20:17;;;;;;;8.02;1.08;;;;;;;6.80;100.00;97889.16;4970439;28;20115;-79
2022/04/07 08:22:43;;;;;;;6.72;1.40;;;;;;;6.62;100.00;97887.72;4953369;28;20164;-78
2022/04/07 08:25:09;;;;;;;6.35;1.05;;;;;;;6.50;100.00;97884.47;4967845;28;20037;-78
2022/04/07 08:27:34;;;;;;;5.03;0.90;;;;;;;6.41;100.00;97882.25;4957309;28;20054;-75
2022/04/07 08:30:00;;;;;;;2.13;0.80;;;;;;;6.59;100.00;97867.63;4931321;28;20082;-78
2022/04/07 08:32:26;;;;;;;5.68;1.02;;;;;;;6.84;100.00;97858.13;4954438;28;20482;-78
2022/04/07 08:34:53;;;;;;;6.65;1.13;;;;;;;7.89;100.00;97873.88;4950966;28;20054;-77
2022/04/07 08:37:20;;;;;;;6.80;1.15;;;;;;;9.30;100.00;97873.03;4955265;28;20037;-78
2022/04/07 08:39:45;;;;;;;6.38;1.38;;;;;;;10.18;100.00;97874.84;4968123;28;20903;-75
2022/04/07 08:42:11;;;;;;;5.63;1.00;;;;;;;10.43;100.00;97887.28;4964758;28;20034;-76
2022/04/07 08:44:37;;;;;;;5.03;1.15;;;;;;;10.08;100.00;97866.88;4950295;28;20140;-75
2022/04/07 08:47:02;;;;;;;7.35;1.15;;;;;;;10.07;100.00;97862.53;4968520;28;23628;-77
2022/04/07 08:49:30;;;;;;;5.30;1.05;;;;;;;10.29;100.00;97858.66;4948802;28;20063;-78
2022/04/07 08:51:56;;;;;;;8.98;1.85;;;;;;;10.96;100.00;97857.63;4970101;28;20079;-77
2022/04/07 08:54:22;;;;;;;3.67;0.93;;;;;;;11.27;100.00;97861.81;4951007;28;20061;-77
2022/04/07 08:56:48;;;;;;;6.35;1.40;;;;;;;11.25;100.00;97858.63;4965951;28;20145;-77
2022/04/07 08:59:14;;;;;;;5.00;1.67;;;;;;;11.33;100.00;97845.28;4964277;28;20126;-77
2022/04/07 09:01:39;;;;;;;6.40;1.15;;;;;;;11.58;100.00;97838.75;4951803;28;20053;-77
2022/04/07 09:04:05;;;;;;;5.10;1.20;;;;;;;11.73;100.00;97845.81;4965130;28;20111;-77
2022/04/07 09:06:34;;;;;;;4.00;1.00;;;;;;;12.36;100.00;97849.94;4951156;28;21199;-77
2022/04/07 09:09:16;;;;;;;6.85;1.38;;;;;;;12.21;100.00;97850.97;4966127;28;20046;-74
2022/04/07 09:11:42;;;;;;;7.53;0.93;;;;;;;12.25;100.00;97848.47;4952712;28;20112;-74
2022/04/07 09:14:10;;;;;;;14.27;1.80;;;;;;;12.30;100.00;97841.09;4971958;28;20033;-75
2022/04/07 09:16:39;;;;;;;8.73;1.13;;;;;;;11.67;100.00;97826.19;4951415;28;20073;-76
2022/04/07 09:19:06;;;;;;;8.18;1.17;;;;;;;10.96;100.00;97832.59;4963196;28;20039;-75
2022/04/07 09:21:34;;;;;;;8.77;1.48;;;;;;;10.85;100.00;97841.91;4938803;28;20041;-76
2022/04/07 09:24:00;;;;;;;6.45;1.20;;;;;;;10.47;100.00;97839.09;4966312;28;20136;-73
2022/04/07 09:26:27;;;;;;;6.85;1.55;;;;;;;10.26;100.00;97838.50;4967750;28;23213;-76
2022/04/07 09:28:57;;;;;;;10.45;1.63;;;;;;;10.29;100.00;97821.78;4934621;28;20148;-75
2022/04/07 09:31:22;;;;;;;8.77;1.80;;;;;;;10.43;100.00;97832.69;4962687;28;20041;-75
2022/04/07 09:33:56;;;;;;;9.60;1.42;;;;;;;10.58;100.00;97823.63;4950110;28;20053;-75
2022/04/07 09:36:23;;;;;;;6.78;1.48;;;;;;;10.50;100.00;97819.69;4964732;28;20029;-76
2022/04/07 09:38:53;;;;;;;8.73;1.38;;;;;;;10.44;100.00;97824.31;4949009;28;20444;-76
2022/04/07 09:41:20;;;;;;;9.98;1.90;;;;;;;10.73;100.00;97810.78;4963135;28;20111;-75
2022/04/07 09:43:58;;;;;;;11.40;2.25;;;;;;;10.73;100.00;97824.22;4951372;28;20048;-75
2022/04/07 09:46:24;;;;;;;15.50;1.98;;;;;;;10.94;100.00;97821.31;4962923;28;23031;-75
2022/04/07 09:49:03;;;;;;;10.52;1.70;;;;;;;11.69;100.00;97809.75;4969426;28;20120;-76
2022/04/07 09:51:29;;;;;;;9.20;2.65;;;;;;;11.49;100.00;97808.16;4956276;28;20057;-75
2022/04/07 09:53:56;;;;;;;11.75;2.00;;;;;;;11.77;100.00;97806.38;4971727;28;20156;-75
2022/04/07 09:56:24;;;;;;;15.23;2.40;;;;;;;11.65;100.00;97803.31;4955501;28;20145;-76
2022/04/07 09:58:51;;;;;;;9.30;1.52;;;;;;;11.90;100.00;97797.56;4972434;28;20121;-74
2022/04/07 10:01:16;;;;;;;16.15;2.17;;;;;;;11.79;100.00;97789.88;4937628;28;20045;-74
2022/04/07 10:03:43;;;;;;;11.02;2.00;;;;;;;11.33;100.00;97763.66;4972510;28;20052;-75
2022/04/07 10:06:09;;;;;;;10.50;2.17;;;;;;;11.20;100.00;97776.78;4952474;28;21198;-76
2022/04/07 10:08:35;;;;;;;9.75;2.15;;;;;;;11.72;100.00;97776.78;4969556;28;20048;-75
2022/04/07 10:11:00;;;;;;;9.73;1.77;;;;;;;11.93;100.00;97788.06;4971185;28;20045;-75
2022/04/07 10:13:27;;;;;;;13.75;2.40;;;;;;;11.20;100.00;97792.94;4965737;28;20058;-75
2022/04/07 10:15:52;;;;;;;11.68;2.22;;;;;;;10.26;100.00;97780.09;4967975;28;20030;-76
2022/04/07 10:18:28;;;;;;;16.70;2.70;;;;;;;9.19;100.00;97793.59;4955474;28;20094;-77
2022/04/07 10:20:57;;;;;;;15.00;2.20;;;;;;;8.59;100.00;97790.94;4975168;28;20040;-78
2022/04/07 10:23:50;;;;;;;14.23;2.22;;;;;;;8.31;100.00;97781.59;4965707;28;20057;-78
2022/04/07 10:26:16;;;;;;;17.05;2.58;;;;;;;8.37;100.00;97777.84;4981321;28;20092;-79
2022/04/07 10:28:42;;;;;;;16.33;2.47;;;;;;;8.70;100.00;97764.88;4958403;28;20949;-78
2022/04/07 10:31:15;;;;;;;13.13;2.22;;;;;;;8.72;100.00;97789.56;4975763;28;20158;-78
2022/04/07 10:33:48;;;;;;;6.60;1.42;;;;;;;8.31;100.00;97795.03;4956462;28;20056;-79
2022/04/07 10:36:17;;;;;;;14.98;2.55;;;;;;;7.38;100.00;97794.31;4972296;28;20025;-80
2022/04/07 10:38:51;;;;;;;12.75;1.88;;;;;;;6.80;100.00;97809.69;4962938;28;22480;-80
2022/04/07 10:41:38;;;;;;;11.02;2.08;;;;;;;6.97;100.00;97806.00;4961697;28;20888;-81
2022/04/07 10:44:18;;;;;;;12.68;2.45;;;;;;;7.41;100.00;97792.97;4982432;28;20026;-79
2022/04/07 10:46:44;;;;;;;14.98;2.17;;;;;;;8.54;100.00;97802.50;4966198;28;20061;-79
2022/04/07 10:49:11;;;;;;;11.10;2.45;;;;;;;9.37;100.00;97795.66;4961927;28;20095;-78
2022/04/07 10:51:42;;;;;;;11.48;2.15;;;;;;;9.60;100.00;97787.94;4953602;28;20126;-79
2022/04/07 10:54:08;;;;;;;12.07;1.92;;;;;;;9.77;100.00;97783.75;4973251;28;20100;-80
2022/04/07 10:56:34;;;;;;;16.75;2.67;;;;;;;9.80;100.00;97791.28;4951308;28;21145;-79
2022/04/07 10:59:19;;;;;;;14.50;2.75;;;;;;;9.58;100.00;97780.16;4952359;28;20947;-78
2022/04/07 11:02:04;;;;;;;12.52;2.45;;;;;;;9.33;100.00;97792.69;4958539;28;20064;-78
2022/04/07 11:04:30;;;;;;;16.73;2.75;;;;;;;9.23;100.00;97790.09;4962346;28;20036;-77
2022/04/07 11:07:05;;;;;;;19.02;2.60;;;;;;;8.78;100.00;97815.31;4942519;28;20474;-77
2022/04/07 11:10:03;;;;;;;17.80;2.28;;;;;;;8.02;100.00;97805.53;4974791;28;20116;-78
2022/04/07 11:12:29;;;;;;;14.75;2.10;;;;;;;7.66;100.00;97810.94;4954574;28;20053;-78
2022/04/07 11:15:00;;;;;;;12.60;2.85;;;;;;;7.56;100.00;97792.16;4968638;28;20042;-78
2022/04/07 11:17:26;;;;;;;12.40;2.33;;;;;;;7.44;100.00;97794.28;4970486;28;20045;-78
2022/04/07 11:19:55;;;;;;;17.92;3.28;;;;;;;7.38;100.00;97809.56;4961940;28;20053;-78
2022/04/07 11:22:50;;;;;;;12.25;2.03;;;;;;;7.45;100.00;97798.59;4959204;28;20096;-78
2022/04/07 11:25:20;;;;;;;12.23;2.47;;;;;;;8.32;100.00;97780.56;4961347;28;20060;-78